createdAt,value
2022-12-18T00:02:57.684Z,57.87
2022-12-18T00:06:00.799Z,61.98
2022-12-18T00:09:04.714Z,69.17
2022-12-18T00:15:18.625Z,56.37
2022-12-18T00:18:21.507Z,56.55
2022-12-18T00:21:24.354Z,60.33
2022-12-18T00:24:27.513Z,66.34
2022-12-18T00:27:30.383Z,67.89
2022-12-18T00:30:33.295Z,62.68
2022-12-18T00:33:37.436Z,59.64
2022-12-18T00:36:42.113Z,53.86
2022-12-18T00:39:44.928Z,56.82
2022-12-18T00:42:56.873Z,58.78
2022-12-18T00:45:59.822Z,65.64
2022-12-18T00:49:04.073Z,68.10
2022-12-18T00:52:06.946Z,62.11
2022-12-18T00:55:10.374Z,55.67
2022-12-18T00:58:15.043Z,56.15
2022-12-18T01:01:18.047Z,60.44
2022-12-18T01:04:21.003Z,65.67
2022-12-18T01:07:23.851Z,65.91
2022-12-18T01:10:27.139Z,66.21
2022-12-18T01:13:29.908Z,62.61
2022-12-18T01:16:32.816Z,58.56
2022-12-18T01:19:35.749Z,53.12
2022-12-18T01:22:38.804Z,58.49
2022-12-18T01:25:41.725Z,61.54
2022-12-18T01:28:45.207Z,66.98
2022-12-18T01:31:48.081Z,64.16
2022-12-18T01:34:51.031Z,62.61
2022-12-18T01:37:57.087Z,61.41
2022-12-18T01:41:01.170Z,61.05
2022-12-18T01:44:42.739Z,60.66
2022-12-18T01:47:57.316Z,55.63
2022-12-18T01:51:01.326Z,53.47
2022-12-18T01:54:04.301Z,57.69
2022-12-18T01:57:07.236Z,57.96
2022-12-18T02:00:22.271Z,58.93
2022-12-18T02:03:25.220Z,66.53
2022-12-18T02:06:41.172Z,69.29
2022-12-18T02:09:59.572Z,69.71
2022-12-18T02:13:43.321Z,61.32
2022-12-18T02:16:58.713Z,50.87
2022-12-18T02:20:25.867Z,52.84
2022-12-18T02:23:47.183Z,54.86
2022-12-18T02:26:52.703Z,56.29
2022-12-18T02:29:59.164Z,57.39
2022-12-18T02:33:05.033Z,57.64
2022-12-18T02:36:11.965Z,58.25
2022-12-18T02:39:17.574Z,59.98
2022-12-18T02:42:20.824Z,67.94
2022-12-18T02:45:23.817Z,74.58
2022-12-18T02:48:33.877Z,65.54
2022-12-18T02:52:02.629Z,54.71
2022-12-18T02:55:20.283Z,52.36
2022-12-18T02:58:26.061Z,54.21
2022-12-18T03:01:44.275Z,57.14
2022-12-18T03:05:19.419Z,57.71
2022-12-18T03:08:31.220Z,58.97
2022-12-18T03:11:57.964Z,59.88
2022-12-18T03:15:17.676Z,66.65
2022-12-18T03:18:30.734Z,72.24
2022-12-18T03:21:40.007Z,64.35
2022-12-18T03:24:43.889Z,58.28
2022-12-18T03:27:52.356Z,53.23
2022-12-18T03:31:00.254Z,54.60
2022-12-18T03:34:10.491Z,55.51
2022-12-18T03:37:13.434Z,57.82
2022-12-18T03:40:16.651Z,58.78
2022-12-18T03:43:57.243Z,61.02
2022-12-18T03:47:09.142Z,60.50
2022-12-18T03:50:21.303Z,70.60
2022-12-18T03:53:32.952Z,70.54
2022-12-18T03:56:43.276Z,65.17
2022-12-18T03:59:50.476Z,62.27
2022-12-18T04:02:56.388Z,61.68
2022-12-18T04:06:01.972Z,61.16
2022-12-18T04:09:06.002Z,59.25
2022-12-18T04:12:09.958Z,56.37
2022-12-18T04:15:14.072Z,57.07
2022-12-18T04:18:17.207Z,58.28
2022-12-18T04:21:20.488Z,58.99
2022-12-18T04:24:23.360Z,58.63
2022-12-18T04:27:26.186Z,59.59
2022-12-18T04:30:29.035Z,60.66
2022-12-18T04:33:31.928Z,60.63
2022-12-18T04:36:34.792Z,61.50
2022-12-18T04:39:37.791Z,67.77
2022-12-18T04:42:41.691Z,73.99
2022-12-18T04:45:44.584Z,70.30
2022-12-18T04:48:48.119Z,67.15
2022-12-18T04:51:50.945Z,61.69
2022-12-18T04:54:53.869Z,59.81
2022-12-18T04:57:56.696Z,56.45
2022-12-18T05:00:59.517Z,56.09
2022-12-18T05:04:03.281Z,57.63
2022-12-18T05:07:06.099Z,58.76
2022-12-18T05:10:09.508Z,59.96
2022-12-18T05:13:14.044Z,60.88
2022-12-18T05:16:17.162Z,60.05
2022-12-18T05:19:20.175Z,61.55
2022-12-18T05:22:23.016Z,69.49
2022-12-18T05:25:25.968Z,73.32
2022-12-18T05:28:31.171Z,67.54
2022-12-18T05:31:39.495Z,64.31
2022-12-18T05:34:42.775Z,62.19
2022-12-18T05:37:45.790Z,61.06
2022-12-18T05:40:49.757Z,61.15
2022-12-18T05:43:52.543Z,60.35
2022-12-18T05:46:55.454Z,57.77
2022-12-18T05:49:58.414Z,55.79
2022-12-18T05:53:01.362Z,55.88
2022-12-18T05:56:06.147Z,59.12
2022-12-18T05:59:08.890Z,64.80
2022-12-18T06:02:11.864Z,69.18
2022-12-18T06:05:15.166Z,65.55
2022-12-18T06:08:18.231Z,65.08
2022-12-18T06:11:24.633Z,63.00
2022-12-18T06:14:28.847Z,61.38
2022-12-18T06:17:33.190Z,57.58
2022-12-18T06:20:37.650Z,51.77
2022-12-18T06:23:40.932Z,55.02
2022-12-18T06:26:44.095Z,56.86
2022-12-18T06:29:47.051Z,62.35
2022-12-18T06:32:56.311Z,66.37
2022-12-18T06:36:13.514Z,64.37
2022-12-18T06:39:16.314Z,62.41
2022-12-18T06:42:19.355Z,60.04
2022-12-18T06:45:22.460Z,56.90
2022-12-18T06:48:25.440Z,57.18
2022-12-18T06:51:28.320Z,58.10
2022-12-18T06:54:31.139Z,59.15
2022-12-18T06:57:33.937Z,64.30
2022-12-18T07:00:36.922Z,69.30
2022-12-18T07:03:41.763Z,65.67
2022-12-18T07:06:44.873Z,63.67
2022-12-18T07:09:48.049Z,61.82
2022-12-18T07:12:50.899Z,62.26
2022-12-18T07:15:53.891Z,61.38
2022-12-18T07:18:57.302Z,57.20
2022-12-18T07:22:00.144Z,53.42
2022-12-18T07:25:03.150Z,58.40
2022-12-18T07:28:06.044Z,60.34
2022-12-18T07:31:13.091Z,64.64
2022-12-18T07:34:16.375Z,66.39
2022-12-18T07:37:19.327Z,62.03
2022-12-18T07:40:22.161Z,61.60
2022-12-18T07:43:25.006Z,59.70
2022-12-18T07:46:27.777Z,55.37
2022-12-18T07:49:30.630Z,54.49
2022-12-18T07:52:33.476Z,54.34
2022-12-18T07:55:59.931Z,55.82
2022-12-18T07:59:00.719Z,56.92
2022-12-18T08:02:04.172Z,60.66
2022-12-18T08:05:07.286Z,59.21
2022-12-18T08:08:10.272Z,58.75
2022-12-18T08:11:13.255Z,61.73
2022-12-18T08:14:16.191Z,68.58
2022-12-18T08:17:20.590Z,64.99
2022-12-18T08:20:23.412Z,58.75
2022-12-18T08:23:28.722Z,54.52
2022-12-18T08:26:32.401Z,53.82
2022-12-18T08:29:35.387Z,54.69
2022-12-18T08:32:38.195Z,55.45
2022-12-18T08:35:45.826Z,55.82
2022-12-18T08:38:49.006Z,56.09
2022-12-18T08:42:10.608Z,57.16
2022-12-18T08:45:13.540Z,58.72
2022-12-18T08:48:21.865Z,58.97
2022-12-18T08:51:25.219Z,57.65
2022-12-18T08:54:28.125Z,63.96
2022-12-18T08:57:31.008Z,67.63
2022-12-18T09:00:33.781Z,66.36
2022-12-18T09:03:36.697Z,62.93
2022-12-18T09:06:39.577Z,55.83
2022-12-18T09:09:42.455Z,47.20
2022-12-18T09:12:45.257Z,49.01
2022-12-18T09:15:53.088Z,53.21
2022-12-18T09:19:00.619Z,58.01
2022-12-18T09:22:03.448Z,60.90
2022-12-18T09:25:09.016Z,58.06
2022-12-18T09:28:20.275Z,51.94
2022-12-18T09:31:25.422Z,53.17
2022-12-18T09:34:28.321Z,52.51
2022-12-18T09:37:31.134Z,52.19
2022-12-18T09:40:40.952Z,52.65
2022-12-18T09:43:58.556Z,52.62
2022-12-18T09:47:17.493Z,53.41
2022-12-18T09:50:26.566Z,53.84
2022-12-18T09:53:34.546Z,53.94
2022-12-18T09:56:41.962Z,54.36
2022-12-18T09:59:50.997Z,54.37
2022-12-18T10:03:02.629Z,54.42
2022-12-18T10:06:16.479Z,54.40
2022-12-18T10:09:19.228Z,55.63
2022-12-18T10:12:36.135Z,56.64
2022-12-18T10:15:51.921Z,57.72
2022-12-18T10:19:19.606Z,56.92
2022-12-18T10:22:44.181Z,55.96
2022-12-18T10:25:56.673Z,55.94
2022-12-18T10:29:05.295Z,55.33
2022-12-18T10:32:15.343Z,55.69
2022-12-18T10:35:25.276Z,55.86
2022-12-18T10:38:31.448Z,55.88
2022-12-18T10:41:34.555Z,56.31
2022-12-18T10:44:37.502Z,56.20
2022-12-18T10:47:49.504Z,55.82
2022-12-18T10:54:23.595Z,55.24
2022-12-18T10:57:37.870Z,55.04
2022-12-18T11:00:40.761Z,55.10
2022-12-18T11:03:46.052Z,55.41
2022-12-18T11:07:07.201Z,55.58
2022-12-18T11:10:19.131Z,55.31
2022-12-18T11:13:25.041Z,55.30
2022-12-18T11:16:30.097Z,55.51
2022-12-18T11:19:38.296Z,55.86
2022-12-18T11:22:41.262Z,55.81
2022-12-18T11:25:53.596Z,56.17
2022-12-18T11:29:12.038Z,56.60
2022-12-18T11:32:46.218Z,56.56
2022-12-18T11:35:53.112Z,56.90
2022-12-18T11:38:57.389Z,57.07
2022-12-18T11:42:13.640Z,57.28
2022-12-18T11:45:28.014Z,57.45
2022-12-18T11:48:37.826Z,57.50
2022-12-18T11:51:57.385Z,57.61
2022-12-18T11:55:09.722Z,57.84
2022-12-18T11:58:22.563Z,57.91
2022-12-18T12:01:52.201Z,58.04
2022-12-18T12:05:15.205Z,58.27
2022-12-18T12:08:24.289Z,58.50
2022-12-18T12:11:44.702Z,58.56
2022-12-18T12:15:04.504Z,58.78
2022-12-18T12:18:31.260Z,58.81
2022-12-18T12:21:40.484Z,59.03
2022-12-18T12:24:49.578Z,59.28
2022-12-18T12:28:04.017Z,59.67
2022-12-18T12:31:06.888Z,60.32
2022-12-18T12:34:57.872Z,60.79
2022-12-18T12:38:17.141Z,60.96
2022-12-18T12:41:46.826Z,61.47
2022-12-18T12:44:56.460Z,61.96
2022-12-18T12:48:02.719Z,61.96
2022-12-18T12:51:14.157Z,61.81
2022-12-18T12:54:20.978Z,62.06
2022-12-18T12:57:28.041Z,69.74
2022-12-18T13:00:50.779Z,65.82
2022-12-18T13:03:58.524Z,57.82
2022-12-18T13:07:16.761Z,54.35
2022-12-18T13:10:23.837Z,55.00
2022-12-18T13:13:50.576Z,56.47
2022-12-18T13:17:23.087Z,57.33
2022-12-18T13:20:35.373Z,58.59
2022-12-18T13:23:42.181Z,59.64
2022-12-18T13:26:45.486Z,60.17
2022-12-18T13:29:48.687Z,60.94
2022-12-18T13:33:19.131Z,61.65
2022-12-18T13:36:29.864Z,69.50
2022-12-18T13:39:35.925Z,68.81
2022-12-18T13:43:01.263Z,60.27
2022-12-18T13:46:06.879Z,55.85
2022-12-18T13:49:22.657Z,55.08
2022-12-18T13:52:38.398Z,56.49
2022-12-18T13:55:47.806Z,57.97
2022-12-18T13:59:17.428Z,59.18
2022-12-18T14:02:29.930Z,60.29
2022-12-18T14:05:39.509Z,71.75
2022-12-18T14:08:47.721Z,66.97
2022-12-18T14:11:52.185Z,59.06
2022-12-18T14:14:55.491Z,57.05
2022-12-18T14:18:17.326Z,54.85
2022-12-18T14:21:33.493Z,54.13
2022-12-18T14:24:36.567Z,53.99
2022-12-18T14:27:44.903Z,53.45
2022-12-18T14:30:47.955Z,53.61
2022-12-18T14:33:51.473Z,53.36
2022-12-18T14:36:56.359Z,52.74
2022-12-18T14:40:10.151Z,52.71
2022-12-18T14:43:14.774Z,52.71
2022-12-18T14:46:31.437Z,54.06
2022-12-18T14:49:35.910Z,52.60
2022-12-18T14:52:39.827Z,50.95
2022-12-18T14:55:48.517Z,51.02
2022-12-18T14:58:55.361Z,50.96
2022-12-18T15:01:58.418Z,51.16
2022-12-18T15:05:12.627Z,51.12
2022-12-18T15:08:38.024Z,51.86
2022-12-18T15:11:40.944Z,52.27
2022-12-18T15:14:43.808Z,53.21
2022-12-18T15:17:46.636Z,53.03
2022-12-18T15:20:56.964Z,55.12
2022-12-18T15:23:59.867Z,54.77
2022-12-18T15:27:03.136Z,54.81
2022-12-18T15:30:09.083Z,55.74
2022-12-18T15:33:27.813Z,55.75
2022-12-18T15:36:31.447Z,55.95
2022-12-18T15:39:34.477Z,55.94
2022-12-18T15:42:56.091Z,56.06
2022-12-18T15:45:59.064Z,57.16
2022-12-18T15:49:03.853Z,57.58
2022-12-18T15:52:07.238Z,57.97
2022-12-18T15:55:34.001Z,58.35
2022-12-18T15:58:36.857Z,59.51
2022-12-18T16:01:42.713Z,60.26
2022-12-18T16:04:46.933Z,59.59
2022-12-18T16:07:49.872Z,60.61
2022-12-18T16:10:52.837Z,61.80
2022-12-18T16:13:55.675Z,56.33
2022-12-18T16:17:01.491Z,53.21
2022-12-18T16:20:04.599Z,53.31
2022-12-18T16:23:07.907Z,54.21
2022-12-18T16:26:10.743Z,55.05
2022-12-18T16:29:13.555Z,55.64
2022-12-18T16:32:21.378Z,56.26
2022-12-18T16:35:27.310Z,56.19
2022-12-18T16:38:30.154Z,54.32
2022-12-18T16:41:33.724Z,53.82
2022-12-18T16:44:36.842Z,54.64
2022-12-18T16:47:40.623Z,55.75
2022-12-18T16:50:43.555Z,56.82
2022-12-18T16:53:46.424Z,56.39
2022-12-18T16:56:51.981Z,54.16
2022-12-18T16:59:56.804Z,53.16
2022-12-18T17:03:02.973Z,53.73
2022-12-18T17:06:06.944Z,53.21
2022-12-18T17:09:16.902Z,53.98
2022-12-18T17:12:20.045Z,54.40
2022-12-18T17:15:22.902Z,56.50
2022-12-18T17:18:27.113Z,56.18
2022-12-18T17:21:30.388Z,55.95
2022-12-18T17:24:35.299Z,57.10
2022-12-18T17:27:38.739Z,59.40
2022-12-18T17:30:41.675Z,58.70
2022-12-18T17:33:44.803Z,56.97
2022-12-18T17:36:47.715Z,56.20
2022-12-18T17:39:50.552Z,56.46
2022-12-18T17:42:53.791Z,55.40
2022-12-18T17:45:57.304Z,55.89
2022-12-18T17:49:02.599Z,55.76
2022-12-18T17:52:05.577Z,56.53
2022-12-18T17:55:09.139Z,54.88
2022-12-18T17:58:11.953Z,55.57
2022-12-18T18:01:16.777Z,56.50
2022-12-18T18:04:19.747Z,57.00
2022-12-18T18:07:22.851Z,56.71
2022-12-18T18:10:25.874Z,57.29
2022-12-18T18:13:47.416Z,56.62
2022-12-18T18:16:52.260Z,56.68
2022-12-18T18:19:55.150Z,56.74
2022-12-18T18:22:58.089Z,56.51
2022-12-18T18:26:05.572Z,58.28
2022-12-18T18:29:12.348Z,58.85
2022-12-18T18:32:15.526Z,57.01
2022-12-18T18:35:45.147Z,58.08
2022-12-18T18:38:45.369Z,60.38
2022-12-18T18:41:51.839Z,60.49
2022-12-18T18:44:54.596Z,58.12
2022-12-18T18:47:58.970Z,58.04
2022-12-18T18:51:14.686Z,59.55
2022-12-18T18:54:25.652Z,60.78
2022-12-18T18:57:30.436Z,59.64
2022-12-18T19:00:33.818Z,59.76
2022-12-18T19:03:38.090Z,58.92
2022-12-18T19:06:41.678Z,59.50
2022-12-18T19:09:45.466Z,59.82
2022-12-18T19:13:07.221Z,60.65
2022-12-18T19:16:10.349Z,58.92
2022-12-18T19:19:13.932Z,57.96
2022-12-18T19:22:16.974Z,58.59
2022-12-18T19:25:19.757Z,58.36
2022-12-18T19:28:26.359Z,58.67
2022-12-18T19:31:34.746Z,58.88
2022-12-18T19:34:39.079Z,59.22
2022-12-18T19:37:42.140Z,59.37
2022-12-18T19:40:45.263Z,59.56
2022-12-18T19:43:49.237Z,59.68
2022-12-18T19:46:52.230Z,59.79
2022-12-18T19:49:55.175Z,60.17
2022-12-18T19:52:58.536Z,59.53
2022-12-18T19:56:12.893Z,58.89
2022-12-18T19:59:15.865Z,59.35
2022-12-18T20:02:20.231Z,60.07
2022-12-18T20:05:25.433Z,61.05
2022-12-18T20:08:28.196Z,59.16
2022-12-18T20:11:33.640Z,57.88
2022-12-18T20:14:41.521Z,57.84
2022-12-18T20:17:44.311Z,57.82
2022-12-18T20:20:48.121Z,58.12
2022-12-18T20:23:54.640Z,57.55
2022-12-18T20:26:57.616Z,57.43
2022-12-18T20:30:00.784Z,57.65
2022-12-18T20:33:03.910Z,58.59
2022-12-18T20:36:12.495Z,58.25
2022-12-18T20:39:16.544Z,58.48
2022-12-18T20:42:19.634Z,59.75
2022-12-18T20:45:22.621Z,59.51
2022-12-18T20:48:26.822Z,59.19
2022-12-18T20:51:30.717Z,59.48
2022-12-18T20:54:33.867Z,58.66
2022-12-18T20:57:36.727Z,59.47
2022-12-18T21:00:41.238Z,59.67
2022-12-18T21:03:46.476Z,59.32
2022-12-18T21:06:54.262Z,61.09
2022-12-18T21:10:05.691Z,62.07
2022-12-18T21:13:08.717Z,57.03
2022-12-18T21:16:12.985Z,57.95
2022-12-18T21:19:20.430Z,55.98
2022-12-18T21:22:23.916Z,54.38
2022-12-18T21:25:27.543Z,52.70
2022-12-18T21:28:30.341Z,52.42
2022-12-18T21:31:38.230Z,51.66
2022-12-18T21:34:46.008Z,52.61
2022-12-18T21:37:50.841Z,54.81
2022-12-18T21:40:53.726Z,52.80
2022-12-18T21:44:07.969Z,49.99
2022-12-18T21:47:21.570Z,50.26
2022-12-18T21:50:26.184Z,52.60
2022-12-18T21:53:29.002Z,50.48
2022-12-18T21:57:01.037Z,49.22
2022-12-18T22:00:05.830Z,46.83
2022-12-18T22:03:18.216Z,47.78
2022-12-18T22:06:22.529Z,46.78
2022-12-18T22:09:26.065Z,43.89
2022-12-18T22:12:43.463Z,43.01
2022-12-18T22:15:47.555Z,42.41
2022-12-18T22:18:50.435Z,41.70
2022-12-18T22:21:54.505Z,41.37
2022-12-18T22:24:57.440Z,40.97
2022-12-18T22:28:18.795Z,40.81
2022-12-18T22:31:21.636Z,40.13
2022-12-18T22:34:24.520Z,39.15
2022-12-18T22:37:27.491Z,38.17
2022-12-18T22:40:30.277Z,38.95
2022-12-18T22:43:33.511Z,38.34
2022-12-18T22:46:44.056Z,38.53
2022-12-18T22:49:48.202Z,38.70
2022-12-18T22:52:50.993Z,38.04
2022-12-18T22:56:00.760Z,38.13
2022-12-18T22:59:04.057Z,38.20
2022-12-18T23:02:06.974Z,38.66
2022-12-18T23:05:10.031Z,38.21
2022-12-18T23:08:12.829Z,37.58
2022-12-18T23:11:16.768Z,37.35
2022-12-18T23:14:21.840Z,38.70
2022-12-18T23:17:25.700Z,38.21
2022-12-18T23:20:28.863Z,37.17
2022-12-18T23:23:34.119Z,37.65
2022-12-18T23:26:37.162Z,38.13
2022-12-18T23:29:40.658Z,38.11
2022-12-18T23:32:43.554Z,37.15
2022-12-18T23:35:46.395Z,36.88
2022-12-18T23:38:54.572Z,37.44
2022-12-18T23:41:58.711Z,38.22
2022-12-18T23:45:03.925Z,37.98
2022-12-18T23:48:12.331Z,40.36
2022-12-18T23:51:16.712Z,40.02
2022-12-18T23:54:30.876Z,39.24
2022-12-18T23:57:36.507Z,39.71
